createdAt,value
2017-11-18T00:00:24.028Z,87.51
2017-11-18T00:02:50.454Z,87.68
2017-11-18T00:05:17.612Z,87.92
2017-11-18T00:07:43.943Z,87.90
2017-11-18T00:10:10.373Z,87.13
2017-11-18T00:12:36.808Z,86.87
2017-11-18T00:15:03.139Z,87.14
2017-11-18T00:17:29.573Z,87.17
2017-11-18T00:19:56.009Z,87.09
2017-11-18T00:22:23.095Z,87.02
2017-11-18T00:24:49.465Z,86.77
2017-11-18T00:27:15.906Z,86.89
2017-11-18T00:29:42.349Z,86.98
2017-11-18T00:32:08.807Z,86.37
2017-11-18T00:34:35.180Z,86.88
2017-11-18T00:37:01.680Z,86.90
2017-11-18T00:39:28.847Z,87.09
2017-11-18T00:41:55.186Z,87.07
2017-11-18T00:44:21.695Z,86.91
2017-11-18T00:46:48.123Z,87.18
2017-11-18T00:49:14.528Z,86.86
2017-11-18T00:51:40.990Z,87.01
2017-11-18T00:54:07.428Z,86.99
2017-11-18T00:56:34.688Z,86.79
2017-11-18T00:59:01.125Z,86.72
2017-11-18T01:01:27.679Z,86.36
2017-11-18T01:03:54.086Z,86.15
2017-11-18T01:06:20.542Z,86.08
2017-11-18T01:08:46.963Z,85.76
2017-11-18T01:11:13.398Z,85.55
2017-11-18T01:13:40.477Z,85.38
2017-11-18T01:16:06.874Z,85.69
2017-11-18T01:18:33.309Z,85.52
2017-11-18T01:20:59.743Z,85.91
2017-11-18T01:23:26.178Z,86.00
2017-11-18T01:25:52.612Z,86.11
2017-11-18T01:28:19.049Z,86.17
2017-11-18T01:30:46.208Z,86.31
2017-11-18T01:33:12.642Z,86.19
2017-11-18T01:35:39.077Z,86.46
2017-11-18T01:38:05.502Z,86.57
2017-11-18T01:40:31.936Z,86.80
2017-11-18T01:42:58.493Z,86.67
2017-11-18T01:45:24.832Z,86.91
2017-11-18T01:47:52.058Z,87.41
2017-11-18T01:50:18.394Z,87.43
2017-11-18T01:52:44.854Z,87.43
2017-11-18T01:55:11.261Z,87.87
2017-11-18T01:57:37.724Z,87.73
2017-11-18T02:00:04.140Z,87.68
2017-11-18T02:02:30.577Z,87.45
2017-11-18T02:04:57.720Z,87.36
2017-11-18T02:07:24.154Z,87.53
2017-11-18T02:09:50.551Z,88.10
2017-11-18T02:12:17.024Z,88.35
2017-11-18T02:14:43.459Z,88.21
2017-11-18T02:17:09.896Z,88.11
2017-11-18T02:19:36.264Z,86.93
2017-11-18T02:22:03.582Z,87.33
2017-11-18T02:24:29.913Z,87.64
2017-11-18T02:26:56.347Z,87.90
2017-11-18T02:29:22.781Z,87.75
2017-11-18T02:31:49.225Z,87.34
2017-11-18T02:34:15.654Z,87.42
2017-11-18T02:36:42.105Z,87.40
2017-11-18T02:39:09.342Z,87.28
2017-11-18T02:41:35.803Z,87.19
2017-11-18T02:44:02.219Z,87.53
2017-11-18T02:46:28.663Z,87.92
2017-11-18T02:48:55.190Z,87.88
2017-11-18T02:51:21.617Z,87.50
2017-11-18T02:53:47.988Z,87.40
2017-11-18T02:56:15.230Z,87.19
2017-11-18T02:58:41.746Z,87.18
2017-11-18T03:01:08.201Z,87.17
2017-11-18T03:03:34.720Z,87.43
2017-11-18T03:06:01.145Z,87.40
2017-11-18T03:08:27.579Z,87.71
2017-11-18T03:10:54.015Z,87.89
2017-11-18T03:13:21.174Z,88.05
2017-11-18T03:15:47.610Z,88.06
2017-11-18T03:18:14.044Z,87.94
2017-11-18T03:20:40.479Z,87.95
2017-11-18T03:23:06.907Z,87.89
2017-11-18T03:25:33.345Z,87.75
2017-11-18T03:27:59.679Z,87.52
2017-11-18T03:30:26.926Z,86.99
2017-11-18T03:32:53.330Z,86.96
2017-11-18T03:35:19.804Z,87.18
2017-11-18T03:37:46.229Z,87.05
2017-11-18T03:40:12.664Z,87.13
2017-11-18T03:42:39.097Z,86.81
2017-11-18T03:45:05.542Z,86.79
2017-11-18T03:47:32.685Z,86.98
2017-11-18T03:49:59.118Z,87.10
2017-11-18T03:52:25.553Z,87.26
2017-11-18T03:54:51.996Z,87.47
2017-11-18T03:57:18.367Z,87.42
2017-11-18T03:59:44.866Z,87.97
2017-11-18T04:02:11.292Z,87.88
2017-11-18T04:04:38.480Z,88.11
2017-11-18T04:07:04.816Z,88.49
2017-11-18T04:09:31.174Z,88.64
2017-11-18T04:11:57.655Z,88.18
2017-11-18T04:14:24.089Z,87.84
2017-11-18T04:16:50.492Z,87.77
2017-11-18T04:19:16.958Z,87.46
2017-11-18T04:21:44.100Z,87.43
2017-11-18T04:24:10.505Z,87.58
2017-11-18T04:26:36.868Z,87.64
2017-11-18T04:29:03.304Z,88.10
2017-11-18T04:31:29.739Z,88.28
2017-11-18T04:33:56.180Z,87.98
2017-11-18T04:36:22.727Z,88.20
2017-11-18T04:38:49.826Z,88.25
2017-11-18T04:41:16.268Z,88.20
2017-11-18T04:43:42.739Z,88.36
2017-11-18T04:46:09.210Z,88.14
2017-11-18T04:48:35.601Z,87.90
2017-11-18T04:51:02.033Z,87.86
2017-11-18T04:53:28.478Z,87.59
2017-11-18T04:55:55.620Z,87.30
2017-11-18T04:58:22.044Z,87.31
2017-11-18T05:00:48.491Z,87.53
2017-11-18T05:03:14.897Z,87.39
2017-11-18T05:05:41.389Z,86.71
2017-11-18T05:08:07.896Z,87.16
2017-11-18T05:10:34.339Z,86.67
2017-11-18T05:13:01.593Z,86.57
2017-11-18T05:15:28.020Z,86.48
2017-11-18T05:17:54.454Z,86.54
2017-11-18T05:20:20.888Z,86.72
2017-11-18T05:22:47.354Z,86.33
2017-11-18T05:25:13.870Z,86.48
2017-11-18T05:27:40.295Z,86.66
2017-11-18T05:30:07.465Z,86.69
2017-11-18T05:32:33.890Z,86.89
2017-11-18T05:35:00.316Z,86.98
2017-11-18T05:37:26.758Z,86.50
2017-11-18T05:39:53.185Z,86.72
2017-11-18T05:42:19.620Z,86.32
2017-11-18T05:44:46.063Z,86.37
2017-11-18T05:47:13.283Z,86.39
2017-11-18T05:49:39.732Z,86.50
2017-11-18T05:52:06.187Z,86.35
2017-11-18T05:54:32.612Z,86.30
2017-11-18T05:56:59.047Z,85.64
2017-11-18T05:59:25.482Z,85.79
2017-11-18T06:01:51.936Z,85.84
2017-11-18T06:04:19.069Z,85.62
2017-11-18T06:06:45.519Z,85.27
2017-11-18T06:09:11.946Z,85.65
2017-11-18T06:11:38.394Z,85.91
2017-11-18T06:14:04.772Z,85.89
2017-11-18T06:16:31.250Z,85.67
2017-11-18T06:18:57.676Z,85.90
2017-11-18T06:21:24.863Z,85.59
2017-11-18T06:23:51.263Z,85.80
2017-11-18T06:26:17.697Z,84.81
2017-11-18T06:28:44.135Z,84.72
2017-11-18T06:31:10.576Z,85.27
2017-11-18T06:51:16.877Z,85.31
2017-11-18T06:53:43.303Z,85.48
2017-11-18T06:56:09.739Z,85.16
2017-11-18T06:58:36.167Z,84.93
2017-11-18T07:01:02.603Z,84.25
2017-11-18T07:03:29.036Z,84.44
2017-11-18T07:05:55.787Z,84.90
2017-11-18T07:08:22.145Z,84.14
2017-11-18T07:10:48.552Z,83.67
2017-11-18T07:13:14.977Z,84.54
2017-11-18T07:15:41.448Z,83.38
2017-11-18T07:18:07.792Z,84.09
2017-11-18T07:20:34.187Z,85.03
2017-11-18T07:23:00.626Z,85.25
2017-11-18T07:25:27.057Z,84.99
2017-11-18T07:27:53.484Z,84.28
2017-11-18T07:30:19.956Z,84.12
2017-11-18T07:32:46.478Z,84.77
2017-11-18T07:35:13.000Z,84.80
2017-11-18T07:37:39.939Z,83.55
2017-11-18T07:40:06.382Z,84.14
2017-11-18T07:42:32.809Z,84.05
2017-11-18T07:44:59.242Z,84.06
2017-11-18T07:47:25.679Z,83.81
2017-11-18T07:49:52.133Z,83.39
2017-11-18T07:52:18.479Z,83.73
2017-11-18T07:54:44.849Z,83.37
2017-11-18T07:57:11.210Z,83.10
2017-11-18T07:59:37.646Z,82.86
2017-11-18T08:02:04.081Z,83.18
2017-11-18T08:04:30.518Z,83.38
2017-11-18T08:06:57.462Z,82.51
2017-11-18T08:09:23.897Z,83.35
2017-11-18T08:11:50.441Z,83.42
2017-11-18T08:14:17.380Z,81.65
2017-11-18T08:16:43.926Z,81.69
2017-11-18T08:19:10.457Z,82.02
2017-11-18T08:21:37.106Z,82.93
2017-11-18T08:24:03.639Z,83.25
2017-11-18T08:26:30.544Z,83.30
2017-11-18T08:28:57.636Z,82.90
2017-11-18T08:31:24.235Z,83.22
2017-11-18T08:33:50.862Z,83.37
2017-11-18T08:36:18.095Z,82.92
2017-11-18T08:38:44.812Z,83.37
2017-11-18T08:41:11.904Z,83.76
2017-11-18T08:43:38.629Z,83.88
2017-11-18T08:46:05.484Z,83.57
2017-11-18T08:48:31.980Z,83.64
2017-11-18T08:50:58.816Z,83.84
2017-11-18T08:53:25.251Z,84.20
2017-11-18T08:55:51.685Z,84.51
2017-11-18T08:58:18.602Z,84.32
2017-11-18T09:00:45.067Z,84.27
2017-11-18T09:03:11.540Z,83.46
2017-11-18T09:05:38.141Z,84.01
2017-11-18T09:08:04.520Z,83.98
2017-11-18T09:10:30.966Z,84.60
2017-11-18T09:12:57.967Z,84.50
2017-11-18T09:15:24.532Z,84.51
2017-11-18T09:17:51.110Z,84.69
2017-11-18T09:20:17.670Z,85.11
2017-11-18T09:22:44.208Z,84.41
2017-11-18T09:25:10.753Z,84.77
2017-11-18T09:27:37.180Z,84.57
2017-11-18T09:30:03.621Z,83.76
2017-11-18T09:32:30.048Z,83.61
2017-11-18T09:34:56.484Z,84.24
2017-11-18T09:37:22.919Z,84.08
2017-11-18T09:39:50.173Z,84.20
2017-11-18T09:42:16.609Z,84.04
2017-11-18T09:44:43.248Z,84.43
2017-11-18T09:47:09.894Z,84.47
2017-11-18T09:49:36.529Z,84.26
2017-11-18T09:52:02.902Z,84.17
2017-11-18T09:54:29.367Z,84.26
2017-11-18T09:56:55.936Z,84.34
2017-11-18T09:59:22.477Z,83.82
2017-11-18T10:01:48.912Z,83.97
2017-11-18T10:04:15.547Z,84.37
2017-11-18T10:06:41.977Z,84.27
2017-11-18T10:09:08.411Z,84.46
2017-11-18T10:11:35.154Z,85.32
2017-11-18T10:14:01.597Z,85.31
2017-11-18T10:16:28.029Z,84.82
2017-11-18T10:18:54.765Z,84.70
2017-11-18T10:21:21.209Z,84.67
2017-11-18T10:23:47.742Z,85.27
2017-11-18T10:26:14.686Z,85.80
2017-11-18T10:28:41.120Z,85.40
2017-11-18T10:31:07.553Z,85.26
2017-11-18T10:33:34.766Z,85.34
2017-11-18T10:36:01.244Z,85.61
2017-11-18T10:38:27.699Z,85.78
2017-11-18T10:40:54.055Z,85.26
2017-11-18T10:43:20.515Z,85.34
2017-11-18T10:45:46.991Z,84.75
2017-11-18T10:48:13.937Z,85.25
2017-11-18T10:50:40.361Z,85.79
2017-11-18T10:53:06.907Z,85.39
2017-11-18T10:55:33.653Z,84.53
2017-11-18T10:58:00.186Z,84.45
2017-11-18T11:00:26.612Z,84.29
2017-11-18T11:02:53.481Z,83.72
2017-11-18T11:05:20.003Z,83.16
2017-11-18T11:07:46.434Z,84.30
2017-11-18T11:10:13.170Z,84.25
2017-11-18T11:12:39.607Z,83.83
2017-11-18T11:15:06.032Z,82.58
2017-11-18T11:17:32.893Z,82.74
2017-11-18T11:19:59.429Z,82.79
2017-11-18T11:22:25.966Z,83.24
2017-11-18T11:24:53.234Z,83.58
2017-11-18T11:27:19.715Z,83.72
2017-11-18T11:29:46.162Z,82.78
2017-11-18T11:32:13.036Z,83.28
2017-11-18T11:34:39.463Z,83.91
2017-11-18T11:37:05.904Z,83.60
2017-11-18T11:39:32.546Z,82.77
2017-11-18T11:41:59.084Z,82.92
2017-11-18T11:44:25.620Z,83.27
2017-11-18T11:46:52.051Z,82.35
2017-11-18T11:49:18.684Z,82.45
2017-11-18T11:51:45.122Z,82.57
2017-11-18T11:54:11.556Z,83.26
2017-11-18T11:56:38.102Z,83.95
2017-11-18T11:59:04.530Z,83.73
2017-11-18T12:01:30.961Z,84.22
2017-11-18T12:03:57.918Z,83.64
2017-11-18T12:06:24.420Z,83.91
2017-11-18T12:08:50.866Z,84.07
2017-11-18T12:11:17.520Z,84.13
2017-11-18T12:13:43.976Z,84.46
2017-11-18T12:16:11.347Z,84.44
2017-11-18T12:18:37.828Z,84.09
2017-11-18T12:21:04.392Z,83.78
2017-11-18T12:23:30.921Z,83.58
2017-11-18T12:25:57.355Z,83.26
2017-11-18T12:28:23.790Z,82.84
2017-11-18T12:30:50.439Z,82.92
2017-11-18T12:33:16.872Z,82.83
2017-11-18T12:35:43.300Z,82.98
2017-11-18T12:38:09.743Z,83.48
2017-11-18T12:40:36.515Z,83.32
2017-11-18T12:43:02.849Z,83.41
2017-11-18T12:45:29.168Z,83.67
2017-11-18T12:47:55.677Z,83.86
2017-11-18T12:50:22.111Z,84.13
2017-11-18T12:52:48.475Z,84.78
2017-11-18T12:55:14.879Z,84.61
2017-11-18T12:57:41.313Z,84.63
2017-11-18T13:00:07.685Z,84.86
2017-11-18T13:02:34.080Z,84.63
2017-11-18T13:05:00.618Z,84.62
2017-11-18T13:07:27.053Z,84.76
2017-11-18T13:09:53.385Z,85.39
2017-11-18T13:12:19.922Z,85.13
2017-11-18T13:14:46.371Z,85.39
2017-11-18T13:17:12.778Z,85.32
2017-11-18T13:19:39.225Z,85.34
2017-11-18T13:22:05.714Z,85.39
2017-11-18T13:24:32.164Z,84.80
2017-11-18T13:26:58.622Z,85.20
2017-11-18T13:29:25.101Z,85.31
2017-11-18T13:31:51.501Z,85.28
2017-11-18T13:34:17.876Z,85.25
2017-11-18T13:36:44.268Z,85.81
2017-11-18T13:39:10.704Z,85.81
2017-11-18T13:41:37.145Z,86.30
2017-11-18T13:44:03.581Z,86.61
2017-11-18T13:46:30.015Z,86.28
2017-11-18T13:48:56.449Z,85.49
2017-11-18T13:51:22.885Z,86.12
2017-11-18T13:53:50.035Z,86.63
2017-11-18T13:56:16.463Z,86.23
2017-11-18T13:58:42.999Z,85.96
2017-11-18T14:01:09.434Z,86.00
2017-11-18T14:03:35.869Z,86.10
2017-11-18T14:06:02.312Z,86.00
2017-11-18T14:08:28.886Z,86.42
2017-11-18T14:10:55.973Z,86.24
2017-11-18T14:13:22.326Z,86.46
2017-11-18T14:15:48.768Z,86.84
2017-11-18T14:18:15.202Z,86.97
2017-11-18T14:20:41.567Z,86.72
2017-11-18T14:23:07.961Z,86.99
2017-11-18T14:25:34.406Z,87.32
2017-11-18T14:28:01.620Z,87.64
2017-11-18T14:30:28.092Z,87.72
2017-11-18T14:32:54.493Z,87.58
2017-11-18T14:35:20.954Z,87.65
2017-11-18T14:37:47.319Z,87.49
2017-11-18T14:40:13.651Z,87.25
2017-11-18T14:42:40.052Z,87.19
2017-11-18T14:45:07.204Z,87.28
2017-11-18T14:47:33.731Z,87.46
2017-11-18T14:50:00.175Z,87.33
2017-11-18T14:52:26.628Z,87.35
2017-11-18T14:54:52.980Z,87.38
2017-11-18T14:57:19.377Z,87.47
2017-11-18T14:59:45.821Z,87.40
2017-11-18T15:02:12.986Z,87.35
2017-11-18T15:04:39.376Z,87.23
2017-11-18T15:07:05.794Z,87.11
2017-11-18T15:09:32.270Z,86.77
2017-11-18T15:11:58.704Z,87.08
2017-11-18T15:14:25.136Z,87.14
2017-11-18T15:16:51.469Z,87.18
2017-11-18T15:19:18.837Z,87.17
2017-11-18T15:21:45.268Z,87.12
2017-11-18T15:24:11.658Z,87.25
2017-11-18T15:26:38.148Z,87.40
2017-11-18T15:29:04.532Z,87.68
2017-11-18T15:31:31.003Z,87.70
2017-11-18T15:33:57.374Z,87.65
2017-11-18T15:36:24.687Z,87.73
2017-11-18T15:38:51.131Z,87.60
2017-11-18T15:41:17.577Z,87.67
2017-11-18T15:43:43.993Z,87.63
2017-11-18T15:46:10.361Z,87.40
2017-11-18T15:48:36.758Z,87.52
2017-11-18T15:51:03.134Z,87.61
2017-11-18T15:53:30.276Z,87.64
2017-11-18T15:55:56.787Z,87.48
2017-11-18T15:58:23.215Z,87.46
2017-11-18T16:00:49.657Z,87.55
2017-11-18T16:03:16.083Z,87.47
2017-11-18T16:05:42.528Z,87.08
2017-11-18T16:08:08.912Z,87.05
2017-11-18T16:10:36.207Z,87.46
2017-11-18T16:13:02.649Z,87.66
2017-11-18T16:15:29.008Z,87.54
2017-11-18T16:17:55.409Z,87.66
2017-11-18T16:20:21.849Z,87.52
2017-11-18T16:22:48.276Z,87.26
2017-11-18T16:25:14.712Z,87.26
2017-11-18T16:27:41.965Z,87.17
2017-11-18T16:30:08.400Z,87.20
2017-11-18T16:32:34.839Z,87.29
2017-11-18T16:35:01.163Z,87.32
2017-11-18T16:37:27.604Z,87.42
2017-11-18T16:39:54.042Z,87.54
2017-11-18T16:42:20.480Z,87.58
2017-11-18T16:44:47.621Z,87.58
2017-11-18T16:47:14.058Z,87.69
2017-11-18T16:49:40.503Z,87.83
2017-11-18T16:52:06.936Z,87.81
2017-11-18T16:54:33.262Z,87.90
2017-11-18T16:56:59.633Z,87.78
2017-11-18T16:59:25.992Z,87.62
2017-11-18T17:01:53.308Z,87.61
2017-11-18T17:04:19.669Z,87.56
2017-11-18T17:06:46.013Z,87.54
2017-11-18T17:09:12.496Z,87.49
2017-11-18T17:11:38.926Z,87.39
2017-11-18T17:14:05.352Z,87.27
2017-11-18T17:16:31.798Z,87.22
2017-11-18T17:18:58.834Z,87.32
2017-11-18T17:21:25.269Z,87.48
2017-11-18T17:23:51.706Z,87.57
2017-11-18T17:26:18.141Z,87.60
2017-11-18T17:28:44.539Z,87.75
2017-11-18T17:31:10.860Z,87.90
2017-11-18T17:33:37.197Z,87.99
2017-11-18T17:36:04.493Z,88.11
2017-11-18T17:38:30.935Z,88.17
2017-11-18T17:40:57.362Z,88.03
2017-11-18T17:43:23.919Z,88.26
2017-11-18T17:45:50.315Z,88.51
2017-11-18T17:48:16.764Z,88.62
2017-11-18T17:50:43.201Z,88.51
2017-11-18T17:53:10.318Z,88.43
2017-11-18T17:55:36.757Z,88.37
2017-11-18T17:58:03.155Z,88.36
2017-11-18T18:00:29.555Z,88.44
2017-11-18T18:02:56.009Z,88.31
2017-11-18T18:05:22.424Z,88.26
2017-11-18T18:07:48.869Z,88.16
2017-11-18T18:10:16.010Z,88.03
2017-11-18T18:12:42.454Z,88.09
2017-11-18T18:15:08.880Z,88.16
2017-11-18T18:17:35.212Z,88.07
2017-11-18T18:20:01.585Z,88.27
2017-11-18T18:22:28.053Z,88.24
2017-11-18T18:24:54.489Z,88.35
2017-11-18T18:27:21.606Z,88.21
2017-11-18T18:29:47.999Z,88.27
2017-11-18T18:32:14.368Z,88.26
2017-11-18T18:34:40.766Z,88.06
2017-11-18T18:37:07.201Z,87.88
2017-11-18T18:39:33.636Z,87.68
2017-11-18T18:41:59.968Z,87.72
2017-11-18T18:44:27.202Z,87.73
2017-11-18T18:46:53.623Z,87.91
2017-11-18T18:49:20.100Z,87.87
2017-11-18T18:51:46.527Z,87.72
2017-11-18T18:54:12.961Z,87.63
2017-11-18T18:56:39.410Z,87.65
2017-11-18T18:59:05.942Z,87.68
2017-11-18T19:01:33.003Z,87.70
2017-11-18T19:03:59.342Z,87.70
2017-11-18T19:06:25.851Z,87.84
2017-11-18T19:08:52.310Z,87.79
2017-11-18T19:11:18.726Z,87.73
2017-11-18T19:13:45.155Z,87.41
2017-11-18T19:16:11.701Z,87.33
2017-11-18T19:18:38.741Z,87.30
2017-11-18T19:21:05.176Z,87.51
2017-11-18T19:23:31.610Z,87.57
2017-11-18T19:25:58.045Z,87.59
2017-11-18T19:28:24.481Z,87.72
2017-11-18T19:30:50.914Z,87.85
2017-11-18T19:33:17.288Z,87.98
2017-11-18T19:35:44.511Z,88.07
2017-11-18T19:38:10.940Z,88.27
2017-11-18T19:40:37.306Z,88.40
2017-11-18T19:43:03.702Z,88.33
2017-11-18T19:45:30.146Z,88.08
2017-11-18T19:47:56.541Z,87.82
2017-11-18T19:50:22.991Z,87.38
2017-11-18T19:52:50.157Z,87.54
2017-11-18T19:55:16.535Z,87.68
2017-11-18T19:57:42.890Z,87.55
2017-11-18T20:00:09.336Z,87.08
2017-11-18T20:02:35.794Z,86.72
2017-11-18T20:05:02.249Z,86.88
2017-11-18T20:07:28.664Z,86.79
2017-11-18T20:09:55.917Z,86.43
2017-11-18T20:12:22.327Z,86.32
2017-11-18T20:14:48.790Z,85.99
2017-11-18T20:17:15.233Z,86.36
2017-11-18T20:19:41.656Z,86.44
2017-11-18T20:22:08.100Z,86.49
2017-11-18T20:24:34.636Z,86.62
2017-11-18T20:27:01.685Z,86.62
2017-11-18T20:29:28.126Z,86.52
2017-11-18T20:31:54.545Z,86.46
2017-11-18T20:34:20.988Z,86.43
2017-11-18T20:36:47.446Z,86.53
2017-11-18T20:39:13.972Z,86.61
2017-11-18T20:41:40.388Z,86.73
2017-11-18T20:44:07.621Z,86.82
2017-11-18T20:46:34.063Z,86.91
2017-11-18T20:49:00.515Z,87.06
2017-11-18T20:51:26.945Z,86.78
2017-11-18T20:53:53.379Z,86.76
2017-11-18T20:56:19.938Z,86.95
2017-11-18T20:58:46.283Z,87.30
2017-11-18T21:01:13.452Z,87.43
2017-11-18T21:03:39.911Z,87.37
2017-11-18T21:06:06.393Z,87.33
2017-11-18T21:08:32.809Z,87.48
2017-11-18T21:10:59.240Z,87.70
2017-11-18T21:13:25.681Z,87.71
2017-11-18T21:15:52.010Z,87.64
2017-11-18T21:18:19.271Z,87.43
2017-11-18T21:20:45.716Z,87.22
2017-11-18T21:23:12.130Z,87.08
2017-11-18T21:25:38.643Z,87.10
2017-11-18T21:28:05.112Z,86.90
2017-11-18T21:30:31.649Z,86.66
2017-11-18T21:32:58.074Z,86.62
2017-11-18T21:35:25.227Z,86.72
2017-11-18T21:37:51.557Z,86.86
2017-11-18T21:40:17.891Z,87.04
2017-11-18T21:42:44.335Z,86.81
2017-11-18T21:45:10.759Z,86.86
2017-11-18T21:47:37.224Z,86.79
2017-11-18T21:50:03.635Z,86.81
2017-11-18T21:52:30.792Z,86.90
2017-11-18T21:54:57.225Z,87.08
2017-11-18T21:57:23.676Z,87.24
2017-11-18T21:59:50.057Z,87.33
2017-11-18T22:02:16.492Z,87.32
2017-11-18T22:04:42.957Z,87.31
2017-11-18T22:07:09.391Z,87.10
2017-11-18T22:09:36.645Z,87.04
2017-11-18T22:12:03.019Z,86.93
2017-11-18T22:14:29.411Z,86.79
2017-11-18T22:16:55.956Z,86.69
2017-11-18T22:19:22.395Z,86.64
2017-11-18T22:21:48.816Z,86.70
2017-11-18T22:24:15.135Z,86.84
2017-11-18T22:26:42.401Z,87.02
2017-11-18T22:29:08.836Z,87.01
2017-11-18T22:31:35.280Z,86.90
2017-11-18T22:34:01.716Z,87.17
2017-11-18T22:36:28.149Z,87.21
2017-11-18T22:38:54.677Z,87.10
2017-11-18T22:41:21.112Z,87.34
2017-11-18T22:43:48.265Z,87.25
2017-11-18T22:46:14.699Z,87.06
2017-11-18T22:48:41.143Z,86.92
2017-11-18T22:51:07.678Z,87.10
2017-11-18T22:53:34.108Z,87.27
2017-11-18T22:56:00.508Z,87.46
2017-11-18T22:58:26.873Z,87.45
2017-11-18T23:00:54.111Z,87.58
2017-11-18T23:03:20.528Z,87.51
2017-11-18T23:05:47.003Z,87.65
2017-11-18T23:08:13.386Z,87.72
2017-11-18T23:10:39.798Z,87.93
2017-11-18T23:13:06.300Z,87.96
2017-11-18T23:15:32.742Z,88.06
2017-11-18T23:17:59.988Z,88.06
2017-11-18T23:20:26.428Z,88.02
2017-11-18T23:22:52.968Z,88.05
2017-11-18T23:25:19.393Z,88.22
2017-11-18T23:27:45.940Z,88.20
2017-11-18T23:30:12.374Z,88.35
2017-11-18T23:32:38.911Z,88.38
2017-11-18T23:35:06.063Z,88.33
2017-11-18T23:37:32.528Z,88.41
2017-11-18T23:39:58.862Z,88.50
2017-11-18T23:42:25.256Z,88.52
2017-11-18T23:44:51.690Z,88.54
2017-11-18T23:47:18.125Z,88.55
2017-11-18T23:49:44.513Z,88.46
2017-11-18T23:52:11.719Z,88.37
2017-11-18T23:54:38.146Z,88.42
2017-11-18T23:57:04.479Z,88.42
2017-11-18T23:59:30.848Z,88.43
